Central Sonoma County Latest

29 Stations

15 Minute Data | America/Los_Angeles
as of 8/12/22 8:58 AM PDT
Station Date Time Temp (°F) RH (%) Dew Pt (°F) Wind Spd (mph) Wind Dir (°) Wind Gust (mph) Latest Rain (In) Daily Rain (In) Daily Min Temp (°F) Daily Max Temp (°F)
Healdsburg-South (Sodini) 8/12/22 0845 63.4   4.3 70   20 53.6   2.7 0.6 SSW | 208 2.7   1.0 0.00 0.00 47.3   3.1 64.0   3.9
Windsor-NW (Ranch 8) 8/12/22 0845 59.7   1.7 84   2 54.9   1.0 1.0 WSW | 250 2.5   2.5 0.00 0.00 51.2   3.7 60.8   0.8
Windsor-East (Ranch 16) 8/12/22 0845 61.3   3.1 76   15 53.8   2.0 0.5 SSW | 202 2.8   0.4 0.00 0.00 45.5   2.1 62.6   3.9
Mark West-North (Ranch 14) 8/12/22 0845 63.9   6.0 67   25 52.6   2.9 0.8 N | 350 3.9   1.3 0.00 0.00 47.2   3.1 64.2   5.3
Windsor-SE (Silk Rd) 8/12/22 0845 62.0   5.5 75   24 54.1   2.2 0.1 NE | 44 1.1   1.8 0.00 0.00 45.9   4.3 63.4   6.7
Fulton-NW (Ranch 5) 8/12/22 0845 59.7   3.1 85   14 55.1   1.3 0.2 SSW | 205 1.7   0.2 0.00 0.00 46.0   3.6 62.0   4.8
Windsor-South (Laughlin Rd) 8/12/22 0845 60.2   4.2 80   50 54.1   55.4 - - - 0.00 0.00 48.3   5.1 61.3   2.4
Fulton-SE (Barnes Rd) 8/12/22 0845 60.1   2.3 80   17 53.8   3.0 0.6 NW | 321 1.8   1.4 0.00 0.00 48.4   2.7 61.2   1.6
Fulton-SW (Ranch 21) 8/12/22 0845 62.6   6.3 74   25 54.4   55.5 0.8 SE | 146 2.4   0.2 0.00 0.00 48.2   4.9 63.4   6.2
Santa Rosa-NW (Goldfields) 8/12/22 0845 58.5   1.9 86   14 54.4   2.2 0.6 SE | 126 2.5   0.3 0.00 0.00 47.7   4.5 59.0   0.7
NW Santa Rosa (Piner Road) 8/12/22 0845 60.2   4.3 81   17 54.4   0.9 1.1 E | 85 3.0   0.4 0.00 0.00 46.3   4.0 60.7   4.7
River Rd South (Denner Ranch) 8/12/22 0845 61.6   6.0 76   24 54.0   1.5 1.2 SSE | 161 3.1   0.4 - - 45.4   4.8 62.5   6.6
West Santa Rosa (Hawk's Roost) 8/12/22 0845 58.3   2.1 87   11 54.5   1.3 0.6 NNE | 19 2.0   0.8 0.00 0.00 47.1   4.9 59.7   3.1
Guerneville Rd (Prokopakis) 8/12/22 0845 61.8   5.9 76   22 54.2   1.4 - - - 0.00 0.00 45.6   5.1 63.6   7.2
Guerneville Rd West (Balletto) 8/12/22 0845 59.6   3.8 82   16 54.1   1.1 0.8 SE | 141 2.6   0.3 0.00 0.00 45.8   4.6 60.1   4.0
Guerneville Rd East (Rich Ranch) 8/12/22 0845 61.6   5.3 76   23 54.2   2.2 0.0 N | 0 0.0   0.0 0.00 0.00 46.5   4.4 62.6   5.5
Occidental Rd (Sebastopol) 8/12/22 0845 63.3   7.1 100   0 63.4   7.1 1.0 NE | 51 3.5   0.4 0.00 0.00 44.8   4.8 63.9   7.4
Lower Westside Rd (Ranch 12) 8/12/22 0845 57.8   0.9 88   10 54.3   2.1 0.8 SE | 136 3.1   0.1 0.00 0.00 46.9   2.8 60.0   2.8
Guerneville (Laughlin Rd) 8/12/22 0845 58.4   1.7 80   15 52.4   3.1 0.7 ESE | 113 2.2   0.6 0.00 0.00 45.6   4.2 59.5   1.5
Korbel (Winery) 8/12/22 0845 60.2   3.2 76   21 52.6   3.5 0.9 NE | 47 2.4   0.7 0.00 0.00 48.4   3.8 61.3   3.4
Forestville (Shone Farms) 8/12/22 0845 63.6   6.0 71   25 54.2   2.3 1.3 ESE | 108 3.0   0.3 0.00 0.00 48.4   3.1 66.4   7.4
Forestville-NE (Ranch 30) 8/12/22 0845 63.0   6.1 77   21 55.6   0.7 0.8 ESE | 123 3.0   0.9 0.00 0.00 47.6   1.6 64.6   7.4
Green Valley Vineyard 8/12/22 0845 61.8   6.1 75   23 53.9   1.4 1.8 NE | 55 3.7   1.3 0.00 0.00 48.0   1.8 62.2   6.0
Graton-West (Dutton Ranch) 8/12/22 0845 61.8   5.1 91   9 59.2   2.4 1.6 NE | 37 3.0   0.2 0.00 0.00 43.1   2.7 62.6   5.2
Graton-South (Mill Station Rd) 8/12/22 0845 61.0   5.5 78   20 54.0   0.8 0.1 SSE | 150 1.3   0.6 0.00 0.00 41.4   3.3 62.3   6.4
Occidental (Horseshoe Bend) 8/12/22 0845 61.6   0.1 78   3 54.7   1.0 - - - 0.00 0.00 51.2   1.2 62.7   0.1
Sexton Valley (Jacqueline's Blk) 8/12/22 0845 61.8   5.9 80   18 55.4   0.2 2.3 ENE | 67 4.0   1.2 0.00 0.00 44.8   1.2 62.5   6.4
Sebastopol Hills (Burnside Rd) 8/12/22 0845 59.6   3.8 86   14 55.3   0.4 0.7 NE | 41 3.3   0.4 0.00 0.00 51.6   0.0 60.0   1.9
Seaview/Fort Ross (Hirsch) 8/12/22 0845 55.8   2.2 88   1 52.3   1.9 5.1 N | 357 7.8   1.6 0.00 0.00 52.4   2.1 56.3   3.6
Max     63.9 100 63.4 5.1 - 7.8 0.00 0.00 52.4 66.4
Avg     60.8 80 54.6 1.0 - 2.8 0.00 - - -
Min     55.8 67 52.3 0.0 - 0.0 0.00 0.00 41.4 56.3